Address 0xf89d7b9c864f589bbf53a82105107622b35eaa40 16

Txn Hash Method
Block
From
To
Value [Txn Fee]
0xad147b03c1484877b0045c326d47fc80d8e94e870981eca570882c04b83508c8Transfer204050172022-09-29 0:32:4457 mins ago0x4b7b329aeb1c68dc9ebac2651f38912965efa5b8 IN 0xf89d7b9c864f589bbf53a82105107622b35eaa405.261180969103428 AVAX0.00105 50
0x9a2a95083ade2203fd48e059d456ac7c3beb397a5706711acf074e6417dbb892Transfer204047982022-09-29 0:25:131 hr 5 mins ago0xf89d7b9c864f589bbf53a82105107622b35eaa40OUT Imperium Empires: IME Token0 AVAX0.0021319 50
0xfff64de79ca56a5ebad0996c42d609ec4553d225448c37986ce0e8cbfee1e7d9Transfer204043642022-09-29 0:10:281 hr 19 mins ago0xf89d7b9c864f589bbf53a82105107622b35eaa40OUT0x410b83c44dff48f8e3c81f05a4fee6f49f9f116425.63450872 AVAX0.00105 50
0xd29fc255e1a07a75bb419d25607e504886243ea83bd48cdd3bf7a4ba94f2af11Transfer204036652022-09-28 23:46:261 hr 43 mins ago0xf89d7b9c864f589bbf53a82105107622b35eaa40OUT0xf19f31160ec14c9932eeeee1a42c4ecb1248446b8.139 AVAX0.00105 50
0x35fb9c69a0043f84ab04fd0fada4e8fa4b228ab2e7727540d5f2caedbe2032e5Transfer204025342022-09-28 23:07:202 hrs 22 mins ago0xf89d7b9c864f589bbf53a82105107622b35eaa40OUT Centre: USD Coin0 AVAX0.0032762 50
0xadf778837b308b4f4350eb7a6304bfd13901693bc8c44ace2b2d9eded7734a14Transfer204022782022-09-28 22:58:332 hrs 31 mins ago0xf89d7b9c864f589bbf53a82105107622b35eaa40OUT OpenBlox: OBX Token0 AVAX0.00335855 50
0xc70a334e6c11214ca41d8d1653b1a191f81cb4b9f5fdf171e68e6b20a370d87fTransfer204006372022-09-28 22:02:243 hrs 27 mins ago0x9cd190a37d968965c05e9640a30cdf0df2b30a55 IN 0xf89d7b9c864f589bbf53a82105107622b35eaa408.98895 AVAX0.00105 50
0x214a8c5c11340525682de137d6e9c5db6c1c9c67a73d2547709d077246c2af1aTransfer204002672022-09-28 21:49:403 hrs 40 mins ago0xf89d7b9c864f589bbf53a82105107622b35eaa40OUT 0x31c994ac062c1970c086260bc61babb708643fac0 AVAX0.00284485 50
0x7e0d98502da40c7b853b5ab1b81f7abd0906ffd25b32e7f6bed6aac4a54ddfccTransfer204002092022-09-28 21:47:443 hrs 42 mins ago0xf89d7b9c864f589bbf53a82105107622b35eaa40OUT0x1a6bfd545636cea446a04f3ab16faaaee65416f21.98 AVAX0.00105 50
0xd1b2185ffc19b6a39b11172bc1fea9f11ee491b3b62c763414ef6bd58f3aff67Transfer204001992022-09-28 21:47:243 hrs 42 mins ago0xbb69301fb7e4544974b6e586f62542ef28fc6db1 IN 0xf89d7b9c864f589bbf53a82105107622b35eaa4016.99895 AVAX0.00105 50
0xf06c243f79da5436fbfcaeb996a36294a4a3be70fe032dd4e86f6a72ea0bda11Transfer204001662022-09-28 21:46:183 hrs 44 mins ago0xf89d7b9c864f589bbf53a82105107622b35eaa40OUTTether: USDT Token0 AVAX0.0022013 50
0x3703ca6d637321bf1681b406cb9a1d4189b77f87046acce524240fa963fa7437Transfer204000712022-09-28 21:43:043 hrs 47 mins ago0xf89d7b9c864f589bbf53a82105107622b35eaa40OUTTether: USDT Token0 AVAX0.0022013 50
0x71ad18323745088cf914d219689530e29e95201f13432013f4697ad46b14b31cTransfer203999542022-09-28 21:39:033 hrs 51 mins ago0xf89d7b9c864f589bbf53a82105107622b35eaa40OUTTether: USDT Token0 AVAX0.0030569 50
0x875635f9b78bf0c008dd265f7f33670381a3583426bc6d052bbc988f2592527cTransfer203994302022-09-28 21:21:074 hrs 9 mins ago0xf89d7b9c864f589bbf53a82105107622b35eaa40OUT0xa998180a31acdac71c27c7b957ace3427ae511121.136 AVAX0.00105 50
0x5d5bf5485f10f0f3f73794dc2e236ecded5d5128c507d419aed76f9ee1f1a616Transfer203993192022-09-28 21:17:224 hrs 12 mins ago0x3d9c056dac7efa9a6f55967a7fafa50dffc4f3ea IN 0xf89d7b9c864f589bbf53a82105107622b35eaa405.030713365064239 AVAX0.00105 50
0x1d44ca0e1895f34534f31eb7021c1412f283feb7301d5d7ccf883dc4d4859702Transfer203992762022-09-28 21:15:564 hrs 14 mins ago0xf89d7b9c864f589bbf53a82105107622b35eaa40OUT Imperium Empires: IME Token0 AVAX0.0021319 50
0x2d05b66a3333ce7b158c7916427d637a2432871d4d189a9c14023c55178bcdb0Transfer203990922022-09-28 21:09:414 hrs 20 mins ago0xf89d7b9c864f589bbf53a82105107622b35eaa40OUT OpenBlox: OBX Token0 AVAX0.00335915 50
0x78c738dc9300fa7ed920bbaccb8750301d9e2bf6de86f00dc39fa0463d229998Transfer203990152022-09-28 21:07:054 hrs 23 mins ago0xf89d7b9c864f589bbf53a82105107622b35eaa40OUT0x5ec82346d596b14572baa421795e3d495bae12f76.294 AVAX0.00105 50
0x48946882ca4dcb7b670a8df7c8fa046543547c02500967a9c192219f00e2128eTransfer203989412022-09-28 21:04:314 hrs 25 mins ago0xf89d7b9c864f589bbf53a82105107622b35eaa40OUT Step App: FITFI Token0 AVAX0.00194715 50
0xda245ca1f1813f116072721469074d3ca147b93ad69357f8e37934a9d23d257fTransfer203988812022-09-28 21:02:264 hrs 27 mins ago0x3678336d2f2fe15601108a1d40b66046de2110ab IN 0xf89d7b9c864f589bbf53a82105107622b35eaa4082.32095 AVAX0.00105 50
0xeae99dce765e83aa8630aa768084ed79e66e1f2bd4a1f9fbd99e6711a8f75ee9Transfer203986322022-09-28 20:54:044 hrs 36 mins ago0xf89d7b9c864f589bbf53a82105107622b35eaa40OUT0x1b7693934f8cf7c27af735379b623bb7dc154bad0.83 AVAX0.00105 50
0x24c47c5dd9860347241dfea29b2b5bd9efc93ec30f19d4aca999a6f5c598edb2Transfer203984622022-09-28 20:48:094 hrs 42 mins ago0xf89d7b9c864f589bbf53a82105107622b35eaa40OUT0xd725d57dbc1b3c9d6204d8d186e88a7ff1ec64ee5.868 AVAX0.00105 50
0xad39624b621fb6dc814ffddc7ac43736b8bd02748ad41fc35ab5e6655a100054Transfer203981962022-09-28 20:39:004 hrs 51 mins ago0xf89d7b9c864f589bbf53a82105107622b35eaa40OUT Step App: FITFI Token0 AVAX0.00194655 50
0xd3f440b2e30736cbe19d3e2a8eea2a66e218003dc1e4d5ac5f4593b5fc5f599dTransfer203980292022-09-28 20:33:044 hrs 57 mins ago0xf89d7b9c864f589bbf53a82105107622b35eaa40OUT0x7bfe32146e29d022d728f575da99cc72a94e9d293.1 AVAX0.00105 50
0x608a4ba0453674c7152d26d6c65f4916286f88afcee6d370b0f3f17b0c8dfe49Transfer203977252022-09-28 20:22:435 hrs 7 mins ago0xf89d7b9c864f589bbf53a82105107622b35eaa40OUT0x7bfe32146e29d022d728f575da99cc72a94e9d290.5 AVAX0.00105 50
[ Download CSV Export 
Parent Txn Hash Block From To Value
Loading

Contract Name:
0

Compiler Version
0

Optimization Enabled:
0

Other Settings:
-NA-
Block Transaction Gas Used Reward
Age Block Fee Address BC Fee Address Voting Power Jailed Incoming
Block Uncle Number Difficulty Gas Used Reward
Loading
Make sure to use the "Vote Down" button for any spammy posts, and the "Vote Up" for interesting conversations.